sensor_id;sensor_type;location;lat;lon;timestamp;temperature;humidity
27745;DHT22;61387;48.112;8.616;2023-08-24T00:05:43;18.20;99.90
27745;DHT22;61387;48.112;8.616;2023-08-24T00:08:09;18.20;99.90
27745;DHT22;61387;48.112;8.616;2023-08-24T00:10:35;18.20;99.90
27745;DHT22;61387;48.112;8.616;2023-08-24T00:13:01;18.20;99.90
27745;DHT22;61387;48.112;8.616;2023-08-24T00:22:46;18.10;99.90
27745;DHT22;61387;48.112;8.616;2023-08-24T00:25:12;18.10;99.90
27745;DHT22;61387;48.112;8.616;2023-08-24T00:30:05;18.00;99.90
27745;DHT22;61387;48.112;8.616;2023-08-24T00:32:34;18.00;99.90
27745;DHT22;61387;48.112;8.616;2023-08-24T00:35:04;18.00;99.90
27745;DHT22;61387;48.112;8.616;2023-08-24T00:37:33;18.00;99.90
27745;DHT22;61387;48.112;8.616;2023-08-24T00:40:04;18.00;99.90
27745;DHT22;61387;48.112;8.616;2023-08-24T00:42:33;17.90;99.90
27745;DHT22;61387;48.112;8.616;2023-08-24T00:49:51;17.70;99.90
27745;DHT22;61387;48.112;8.616;2023-08-24T00:52:17;17.60;99.90
27745;DHT22;61387;48.112;8.616;2023-08-24T00:54:43;17.60;99.90
27745;DHT22;61387;48.112;8.616;2023-08-24T00:57:10;17.50;99.90
27745;DHT22;61387;48.112;8.616;2023-08-24T01:09:21;17.50;99.90
27745;DHT22;61387;48.112;8.616;2023-08-24T01:12:02;17.50;99.90
27745;DHT22;61387;48.112;8.616;2023-08-24T01:17:14;17.50;99.90
27745;DHT22;61387;48.112;8.616;2023-08-24T01:19:43;17.50;99.90
27745;DHT22;61387;48.112;8.616;2023-08-24T01:22:33;17.50;99.90
27745;DHT22;61387;48.112;8.616;2023-08-24T01:27:25;17.50;99.90
27745;DHT22;61387;48.112;8.616;2023-08-24T01:29:52;17.50;99.90
27745;DHT22;61387;48.112;8.616;2023-08-24T01:37:13;17.40;99.90
27745;DHT22;61387;48.112;8.616;2023-08-24T01:42:07;17.40;99.90
27745;DHT22;61387;48.112;8.616;2023-08-24T01:44:37;17.40;99.90
27745;DHT22;61387;48.112;8.616;2023-08-24T01:49:32;17.30;99.90
27745;DHT22;61387;48.112;8.616;2023-08-24T01:59:16;17.30;99.90
27745;DHT22;61387;48.112;8.616;2023-08-24T02:06:33;17.20;99.90
27745;DHT22;61387;48.112;8.616;2023-08-24T02:31:01;17.00;99.90
27745;DHT22;61387;48.112;8.616;2023-08-24T02:33:27;17.00;99.90
27745;DHT22;61387;48.112;8.616;2023-08-24T02:43:10;17.00;99.90
27745;DHT22;61387;48.112;8.616;2023-08-24T02:52:55;17.20;99.90
27745;DHT22;61387;48.112;8.616;2023-08-24T03:05:05;17.40;99.90
27745;DHT22;61387;48.112;8.616;2023-08-24T03:07:31;17.40;99.90
27745;DHT22;61387;48.112;8.616;2023-08-24T03:14:52;17.40;99.90
27745;DHT22;61387;48.112;8.616;2023-08-24T03:22:10;17.40;99.90
27745;DHT22;61387;48.112;8.616;2023-08-24T03:34:19;17.20;99.90
27745;DHT22;61387;48.112;8.616;2023-08-24T03:39:13;17.10;99.90
27745;DHT22;61387;48.112;8.616;2023-08-24T03:44:06;17.00;99.90
27745;DHT22;61387;48.112;8.616;2023-08-24T03:51:25;17.10;99.90
27745;DHT22;61387;48.112;8.616;2023-08-24T04:01:12;17.10;99.90
27745;DHT22;61387;48.112;8.616;2023-08-24T04:03:37;17.00;99.90
27745;DHT22;61387;48.112;8.616;2023-08-24T04:10:54;16.90;99.90
27745;DHT22;61387;48.112;8.616;2023-08-24T04:15:46;16.90;99.90
27745;DHT22;61387;48.112;8.616;2023-08-24T04:49:51;16.80;99.90
27745;DHT22;61387;48.112;8.616;2023-08-24T05:09:18;17.60;99.90
27745;DHT22;61387;48.112;8.616;2023-08-24T05:19:02;17.70;99.90
27745;DHT22;61387;48.112;8.616;2023-08-24T05:33:42;17.60;99.90
27745;DHT22;61387;48.112;8.616;2023-08-24T05:36:07;17.60;99.90
27745;DHT22;61387;48.112;8.616;2023-08-24T05:43:25;17.90;99.90
27745;DHT22;61387;48.112;8.616;2023-08-24T05:50:46;18.30;99.90
27745;DHT22;61387;48.112;8.616;2023-08-24T05:53:11;18.60;99.90
27745;DHT22;61387;48.112;8.616;2023-08-24T05:58:04;18.90;99.90
27745;DHT22;61387;48.112;8.616;2023-08-24T06:00:30;19.10;99.90
27745;DHT22;61387;48.112;8.616;2023-08-24T06:07:48;19.40;99.90
27745;DHT22;61387;48.112;8.616;2023-08-24T06:10:14;19.50;99.90
27745;DHT22;61387;48.112;8.616;2023-08-24T06:15:05;19.50;99.90
27745;DHT22;61387;48.112;8.616;2023-08-24T06:20:04;19.70;99.90
27745;DHT22;61387;48.112;8.616;2023-08-24T06:22:30;19.70;99.90
27745;DHT22;61387;48.112;8.616;2023-08-24T06:27:25;19.90;99.90
27745;DHT22;61387;48.112;8.616;2023-08-24T06:29:51;20.00;99.90
27745;DHT22;61387;48.112;8.616;2023-08-24T06:32:16;20.00;99.90
27745;DHT22;61387;48.112;8.616;2023-08-24T06:46:53;20.50;99.90
27745;DHT22;61387;48.112;8.616;2023-08-24T06:51:46;20.80;99.90
27745;DHT22;61387;48.112;8.616;2023-08-24T06:54:12;20.80;99.90
27745;DHT22;61387;48.112;8.616;2023-08-24T06:56:37;20.80;99.90
27745;DHT22;61387;48.112;8.616;2023-08-24T06:59:04;20.80;99.90
27745;DHT22;61387;48.112;8.616;2023-08-24T07:01:30;20.90;99.90
27745;DHT22;61387;48.112;8.616;2023-08-24T07:03:57;20.90;99.90
27745;DHT22;61387;48.112;8.616;2023-08-24T07:11:15;21.20;99.90
27745;DHT22;61387;48.112;8.616;2023-08-24T07:18:33;21.90;99.90
27745;DHT22;61387;48.112;8.616;2023-08-24T07:23:24;22.10;99.90
27745;DHT22;61387;48.112;8.616;2023-08-24T07:25:50;22.10;99.90
27745;DHT22;61387;48.112;8.616;2023-08-24T07:33:07;22.70;99.90
27745;DHT22;61387;48.112;8.616;2023-08-24T07:40:25;22.80;99.90
27745;DHT22;61387;48.112;8.616;2023-08-24T07:42:52;23.00;99.90
27745;DHT22;61387;48.112;8.616;2023-08-24T07:45:20;23.20;99.90
27745;DHT22;61387;48.112;8.616;2023-08-24T07:50:12;23.30;99.90
27745;DHT22;61387;48.112;8.616;2023-08-24T07:52:38;23.30;99.90
27745;DHT22;61387;48.112;8.616;2023-08-24T07:55:04;23.40;99.90
27745;DHT22;61387;48.112;8.616;2023-08-24T07:59:58;23.80;99.90
27745;DHT22;61387;48.112;8.616;2023-08-24T08:26:45;25.10;99.90
27745;DHT22;61387;48.112;8.616;2023-08-24T08:29:10;25.40;99.90
27745;DHT22;61387;48.112;8.616;2023-08-24T08:31:36;25.50;99.90
27745;DHT22;61387;48.112;8.616;2023-08-24T08:41:30;26.00;99.90
27745;DHT22;61387;48.112;8.616;2023-08-24T08:48:51;26.50;99.90
27745;DHT22;61387;48.112;8.616;2023-08-24T08:51:18;26.60;99.90
27745;DHT22;61387;48.112;8.616;2023-08-24T08:56:10;27.00;99.90
27745;DHT22;61387;48.112;8.616;2023-08-24T09:03:31;26.60;99.90
27745;DHT22;61387;48.112;8.616;2023-08-24T09:08:25;26.90;99.90
27745;DHT22;61387;48.112;8.616;2023-08-24T09:20:36;27.50;99.90
27745;DHT22;61387;48.112;8.616;2023-08-24T09:28:01;28.10;99.90
27745;DHT22;61387;48.112;8.616;2023-08-24T09:30:30;28.30;99.90
27745;DHT22;61387;48.112;8.616;2023-08-24T09:33:01;28.00;99.90
27745;DHT22;61387;48.112;8.616;2023-08-24T09:40:24;28.10;99.90
27745;DHT22;61387;48.112;8.616;2023-08-24T09:42:50;28.20;99.90
27745;DHT22;61387;48.112;8.616;2023-08-24T09:47:51;28.30;99.90
27745;DHT22;61387;48.112;8.616;2023-08-24T09:50:18;28.60;99.90
27745;DHT22;61387;48.112;8.616;2023-08-24T09:52:44;28.50;99.90
27745;DHT22;61387;48.112;8.616;2023-08-24T09:55:15;28.50;99.90
27745;DHT22;61387;48.112;8.616;2023-08-24T10:00:09;28.70;99.90
27745;DHT22;61387;48.112;8.616;2023-08-24T10:02:50;28.80;99.90
27745;DHT22;61387;48.112;8.616;2023-08-24T10:05:20;29.00;99.90
27745;DHT22;61387;48.112;8.616;2023-08-24T10:07:56;29.20;99.90
27745;DHT22;61387;48.112;8.616;2023-08-24T10:10:25;29.00;99.90
27745;DHT22;61387;48.112;8.616;2023-08-24T10:12:53;29.20;99.90
27745;DHT22;61387;48.112;8.616;2023-08-24T10:17:49;29.50;99.90
27745;DHT22;61387;48.112;8.616;2023-08-24T10:20:18;29.50;99.90
27745;DHT22;61387;48.112;8.616;2023-08-24T10:22:46;29.60;99.90
27745;DHT22;61387;48.112;8.616;2023-08-24T10:25:13;29.70;99.90
27745;DHT22;61387;48.112;8.616;2023-08-24T10:27:40;29.80;99.90
27745;DHT22;61387;48.112;8.616;2023-08-24T10:30:13;30.10;99.90
27745;DHT22;61387;48.112;8.616;2023-08-24T10:32:40;30.10;99.90
27745;DHT22;61387;48.112;8.616;2023-08-24T10:35:07;30.40;99.90
27745;DHT22;61387;48.112;8.616;2023-08-24T10:50:04;30.60;99.90
27745;DHT22;61387;48.112;8.616;2023-08-24T10:57:26;30.70;99.90
27745;DHT22;61387;48.112;8.616;2023-08-24T11:02:51;31.00;99.90
27745;DHT22;61387;48.112;8.616;2023-08-24T11:07:53;31.50;99.90
27745;DHT22;61387;48.112;8.616;2023-08-24T11:10:20;31.60;99.90
27745;DHT22;61387;48.112;8.616;2023-08-24T11:13:10;31.50;99.90
27745;DHT22;61387;48.112;8.616;2023-08-24T11:15:46;31.40;99.90
27745;DHT22;61387;48.112;8.616;2023-08-24T11:18:28;31.40;99.90
27745;DHT22;61387;48.112;8.616;2023-08-24T11:23:21;31.50;99.90
27745;DHT22;61387;48.112;8.616;2023-08-24T11:25:49;31.50;99.90
27745;DHT22;61387;48.112;8.616;2023-08-24T11:28:18;31.20;99.90
27745;DHT22;61387;48.112;8.616;2023-08-24T11:30:45;31.00;99.90
27745;DHT22;61387;48.112;8.616;2023-08-24T11:33:11;31.00;99.90
27745;DHT22;61387;48.112;8.616;2023-08-24T11:35:42;31.10;99.90
27745;DHT22;61387;48.112;8.616;2023-08-24T11:45:34;31.70;99.90
27745;DHT22;61387;48.112;8.616;2023-08-24T11:48:02;32.10;99.90
27745;DHT22;61387;48.112;8.616;2023-08-24T11:55:22;31.70;99.90
27745;DHT22;61387;48.112;8.616;2023-08-24T12:00:14;31.70;99.90
27745;DHT22;61387;48.112;8.616;2023-08-24T12:10:01;32.70;99.90
27745;DHT22;61387;48.112;8.616;2023-08-24T12:14:55;32.70;99.90
27745;DHT22;61387;48.112;8.616;2023-08-24T12:20:00;32.70;99.90
27745;DHT22;61387;48.112;8.616;2023-08-24T12:22:26;32.90;99.90
27745;DHT22;61387;48.112;8.616;2023-08-24T12:27:19;33.00;99.90
27745;DHT22;61387;48.112;8.616;2023-08-24T12:29:46;33.20;99.90
27745;DHT22;61387;48.112;8.616;2023-08-24T12:39:38;33.70;99.90
27745;DHT22;61387;48.112;8.616;2023-08-24T12:49:22;34.30;99.90
27745;DHT22;61387;48.112;8.616;2023-08-24T12:51:48;34.50;99.90
27745;DHT22;61387;48.112;8.616;2023-08-24T12:59:06;34.60;99.90
27745;DHT22;61387;48.112;8.616;2023-08-24T13:08:50;34.90;98.60
27745;DHT22;61387;48.112;8.616;2023-08-24T13:18:33;35.40;98.20
27745;DHT22;61387;48.112;8.616;2023-08-24T13:47:46;35.10;97.10
27745;DHT22;61387;48.112;8.616;2023-08-24T13:52:37;35.20;96.30
27745;DHT22;61387;48.112;8.616;2023-08-24T13:55:03;35.10;96.20
27745;DHT22;61387;48.112;8.616;2023-08-24T13:57:29;35.10;96.60
27745;DHT22;61387;48.112;8.616;2023-08-24T14:02:21;35.40;96.60
27745;DHT22;61387;48.112;8.616;2023-08-24T14:07:12;35.40;96.10
27745;DHT22;61387;48.112;8.616;2023-08-24T14:12:04;35.00;97.00
27745;DHT22;61387;48.112;8.616;2023-08-24T14:16:56;35.20;95.70
27745;DHT22;61387;48.112;8.616;2023-08-24T14:19:22;35.30;95.30
27745;DHT22;61387;48.112;8.616;2023-08-24T14:48:39;34.80;95.50
27745;DHT22;61387;48.112;8.616;2023-08-24T14:51:05;35.30;95.40
27745;DHT22;61387;48.112;8.616;2023-08-24T14:53:34;35.50;94.30
27745;DHT22;61387;48.112;8.616;2023-08-24T14:58:26;35.50;94.30
27745;DHT22;61387;48.112;8.616;2023-08-24T15:00:56;35.50;94.70
27745;DHT22;61387;48.112;8.616;2023-08-24T15:06:03;35.20;95.00
27745;DHT22;61387;48.112;8.616;2023-08-24T15:08:30;34.90;93.80
27745;DHT22;61387;48.112;8.616;2023-08-24T15:10:57;34.80;92.50
27745;DHT22;61387;48.112;8.616;2023-08-24T15:13:24;34.60;92.10
27745;DHT22;61387;48.112;8.616;2023-08-24T15:23:08;34.20;93.20
27745;DHT22;61387;48.112;8.616;2023-08-24T15:30:25;33.70;92.30
27745;DHT22;61387;48.112;8.616;2023-08-24T15:35:17;33.90;91.90
27745;DHT22;61387;48.112;8.616;2023-08-24T15:40:10;33.90;91.80
27745;DHT22;61387;48.112;8.616;2023-08-24T15:49:54;34.10;92.60
27745;DHT22;61387;48.112;8.616;2023-08-24T15:52:20;33.90;92.80
27745;DHT22;61387;48.112;8.616;2023-08-24T16:33:43;31.60;99.90
27745;DHT22;61387;48.112;8.616;2023-08-24T16:50:50;30.70;99.90
27745;DHT22;61387;48.112;8.616;2023-08-24T17:08:07;29.00;99.90
27745;DHT22;61387;48.112;8.616;2023-08-24T17:17:52;28.00;99.90
27745;DHT22;61387;48.112;8.616;2023-08-24T17:25:10;27.60;99.90
27745;DHT22;61387;48.112;8.616;2023-08-24T17:27:36;27.50;99.90
27745;DHT22;61387;48.112;8.616;2023-08-24T17:30:02;27.40;99.90
27745;DHT22;61387;48.112;8.616;2023-08-24T17:32:28;27.30;99.90
27745;DHT22;61387;48.112;8.616;2023-08-24T17:47:04;26.80;99.90
27745;DHT22;61387;48.112;8.616;2023-08-24T18:01:40;26.30;99.90
27745;DHT22;61387;48.112;8.616;2023-08-24T18:18:43;25.90;99.90
27745;DHT22;61387;48.112;8.616;2023-08-24T18:26:01;24.70;99.90
27745;DHT22;61387;48.112;8.616;2023-08-24T18:30:56;21.30;99.90
27745;DHT22;61387;48.112;8.616;2023-08-24T18:33:22;21.40;99.90
27745;DHT22;61387;48.112;8.616;2023-08-24T18:35:50;20.80;99.90
27745;DHT22;61387;48.112;8.616;2023-08-24T18:57:47;18.40;99.90
27745;DHT22;61387;48.112;8.616;2023-08-24T19:05:06;18.80;99.90
27745;DHT22;61387;48.112;8.616;2023-08-24T19:12:23;19.20;99.90
27745;DHT22;61387;48.112;8.616;2023-08-24T19:24:33;19.30;99.90
27745;DHT22;61387;48.112;8.616;2023-08-24T19:29:25;19.30;99.90
27745;DHT22;61387;48.112;8.616;2023-08-24T19:31:51;19.30;99.90
27745;DHT22;61387;48.112;8.616;2023-08-24T19:44:01;19.20;99.90
27745;DHT22;61387;48.112;8.616;2023-08-24T19:46:27;19.20;99.90
27745;DHT22;61387;48.112;8.616;2023-08-24T19:48:54;19.20;99.90
27745;DHT22;61387;48.112;8.616;2023-08-24T19:51:20;19.20;99.90
27745;DHT22;61387;48.112;8.616;2023-08-24T20:03:30;19.20;99.90
27745;DHT22;61387;48.112;8.616;2023-08-24T20:08:22;19.10;99.90
27745;DHT22;61387;48.112;8.616;2023-08-24T20:10:50;19.10;99.90
27745;DHT22;61387;48.112;8.616;2023-08-24T20:15:46;19.10;99.90
27745;DHT22;61387;48.112;8.616;2023-08-24T20:18:11;19.10;99.90
27745;DHT22;61387;48.112;8.616;2023-08-24T20:20:37;19.10;99.90
27745;DHT22;61387;48.112;8.616;2023-08-24T20:23:02;19.20;99.90
27745;DHT22;61387;48.112;8.616;2023-08-24T20:35:12;19.10;99.90
27745;DHT22;61387;48.112;8.616;2023-08-24T20:40:04;19.10;99.90
27745;DHT22;61387;48.112;8.616;2023-08-24T20:44:55;19.10;99.90
27745;DHT22;61387;48.112;8.616;2023-08-24T20:49:47;19.20;99.90
27745;DHT22;61387;48.112;8.616;2023-08-24T20:52:16;19.20;99.90
27745;DHT22;61387;48.112;8.616;2023-08-24T21:31:13;18.80;99.90
27745;DHT22;61387;48.112;8.616;2023-08-24T21:33:39;18.80;99.90
27745;DHT22;61387;48.112;8.616;2023-08-24T21:36:04;18.90;99.90
27745;DHT22;61387;48.112;8.616;2023-08-24T21:40:56;18.90;99.90
27745;DHT22;61387;48.112;8.616;2023-08-24T21:46:00;19.00;99.90
27745;DHT22;61387;48.112;8.616;2023-08-24T21:50:53;19.10;99.90
27745;DHT22;61387;48.112;8.616;2023-08-24T21:53:22;19.00;99.90
27745;DHT22;61387;48.112;8.616;2023-08-24T21:55:50;19.00;99.90
27745;DHT22;61387;48.112;8.616;2023-08-24T22:00:43;19.10;99.90
27745;DHT22;61387;48.112;8.616;2023-08-24T22:03:09;19.10;99.90
27745;DHT22;61387;48.112;8.616;2023-08-24T22:08:01;18.90;99.90
27745;DHT22;61387;48.112;8.616;2023-08-24T22:10:30;18.90;99.90
27745;DHT22;61387;48.112;8.616;2023-08-24T22:20:14;18.70;99.90
27745;DHT22;61387;48.112;8.616;2023-08-24T22:22:42;18.70;99.90
27745;DHT22;61387;48.112;8.616;2023-08-24T22:27:34;18.70;99.90
27745;DHT22;61387;48.112;8.616;2023-08-24T22:30:01;18.70;99.90
27745;DHT22;61387;48.112;8.616;2023-08-24T22:37:18;18.60;99.90
27745;DHT22;61387;48.112;8.616;2023-08-24T22:42:10;18.70;99.90
27745;DHT22;61387;48.112;8.616;2023-08-24T22:47:02;18.70;99.90
27745;DHT22;61387;48.112;8.616;2023-08-24T22:49:28;18.70;99.90
27745;DHT22;61387;48.112;8.616;2023-08-24T22:59:11;18.40;99.90
27745;DHT22;61387;48.112;8.616;2023-08-24T23:04:04;18.30;99.90
27745;DHT22;61387;48.112;8.616;2023-08-24T23:09:20;18.30;99.90
27745;DHT22;61387;48.112;8.616;2023-08-24T23:11:47;18.40;99.90
27745;DHT22;61387;48.112;8.616;2023-08-24T23:19:05;18.40;99.90
27745;DHT22;61387;48.112;8.616;2023-08-24T23:28:48;18.40;99.90
27745;DHT22;61387;48.112;8.616;2023-08-24T23:33:40;18.40;99.90
27745;DHT22;61387;48.112;8.616;2023-08-24T23:40:58;18.40;99.90
27745;DHT22;61387;48.112;8.616;2023-08-24T23:43:24;18.40;99.90
27745;DHT22;61387;48.112;8.616;2023-08-24T23:50:42;18.40;99.90
27745;DHT22;61387;48.112;8.616;2023-08-24T23:53:07;18.40;99.90
27745;DHT22;61387;48.112;8.616;2023-08-24T23:55:36;18.40;99.90
27745;DHT22;61387;48.112;8.616;2023-08-24T23:58:03;18.40;99.90
